Argyle, Illinois
Current Conditions -  °F | °C
As of 6:54 PM on Sunday 21 Dec 2014 (Local Time) from KRFD Reporting Station
Overcast Overcast  
Wind Chill: -3°   Ceiling: 3000
Heat Index:   Visibility: 8mi
Dew Point: -2°   Wind: 16mph
Humidity: 76%   Direction: 160°SSE
Pressure: 30.03"   Gusts: 24mph
Location:  42.3911°N, 88.9094°W
Report Text: KRFD 220054Z 16014G21KT 8SM OVC030 02/M02 A3003 RMK AO2 SLP176 T00221017
Loading
Personal Weather Stations






























Interactive Weather Map New forecast layout! Learn more

10-Day Weather Forecast

Advertisements
Track Severe Weather on mobile